sensor_id;sensor_type;location;lat;lon;timestamp;P1;durP1;ratioP1;P2;durP2;ratioP2
56581;SDS011;42463;52.214;21.238;2023-04-29T00:00:47;16.00;;;12.10;;
56581;SDS011;42463;52.214;21.238;2023-04-29T00:02:52;19.40;;;12.20;;
56581;SDS011;42463;52.214;21.238;2023-04-29T00:04:55;17.80;;;12.60;;
56581;SDS011;42463;52.214;21.238;2023-04-29T00:06:58;20.50;;;13.20;;
56581;SDS011;42463;52.214;21.238;2023-04-29T00:09:01;18.20;;;12.70;;
56581;SDS011;42463;52.214;21.238;2023-04-29T00:11:05;20.50;;;12.70;;
56581;SDS011;42463;52.214;21.238;2023-04-29T00:13:07;20.60;;;12.80;;
56581;SDS011;42463;52.214;21.238;2023-04-29T00:15:10;17.40;;;12.00;;
56581;SDS011;42463;52.214;21.238;2023-04-29T00:17:13;18.70;;;11.90;;
56581;SDS011;42463;52.214;21.238;2023-04-29T00:21:19;18.80;;;12.90;;
56581;SDS011;42463;52.214;21.238;2023-04-29T00:23:21;19.60;;;13.40;;
56581;SDS011;42463;52.214;21.238;2023-04-29T00:25:24;17.90;;;12.70;;
56581;SDS011;42463;52.214;21.238;2023-04-29T00:27:27;23.20;;;13.30;;
56581;SDS011;42463;52.214;21.238;2023-04-29T00:29:30;22.20;;;14.10;;
56581;SDS011;42463;52.214;21.238;2023-04-29T00:31:33;19.70;;;14.00;;
56581;SDS011;42463;52.214;21.238;2023-04-29T00:33:37;23.30;;;13.90;;
56581;SDS011;42463;52.214;21.238;2023-04-29T00:35:41;20.80;;;13.70;;
56581;SDS011;42463;52.214;21.238;2023-04-29T00:37:44;20.40;;;12.90;;
56581;SDS011;42463;52.214;21.238;2023-04-29T00:39:46;18.80;;;13.10;;
56581;SDS011;42463;52.214;21.238;2023-04-29T00:43:52;17.50;;;12.60;;
56581;SDS011;42463;52.214;21.238;2023-04-29T00:45:55;17.90;;;12.70;;
56581;SDS011;42463;52.214;21.238;2023-04-29T00:47:58;18.50;;;13.80;;
56581;SDS011;42463;52.214;21.238;2023-04-29T00:50:01;20.10;;;13.60;;
56581;SDS011;42463;52.214;21.238;2023-04-29T00:54:08;19.40;;;13.20;;
56581;SDS011;42463;52.214;21.238;2023-04-29T00:56:12;20.50;;;13.40;;
56581;SDS011;42463;52.214;21.238;2023-04-29T00:58:16;18.40;;;12.80;;
56581;SDS011;42463;52.214;21.238;2023-04-29T01:03:32;16.60;;;11.90;;
56581;SDS011;42463;52.214;21.238;2023-04-29T01:05:35;18.20;;;13.00;;
56581;SDS011;42463;52.214;21.238;2023-04-29T01:07:41;19.20;;;10.90;;
56581;SDS011;42463;52.214;21.238;2023-04-29T01:09:54;18.00;;;11.90;;
56581;SDS011;42463;52.214;21.238;2023-04-29T01:12:07;18.10;;;11.60;;
56581;SDS011;42463;52.214;21.238;2023-04-29T01:14:14;19.90;;;12.10;;
56581;SDS011;42463;52.214;21.238;2023-04-29T01:16:20;20.30;;;12.40;;
56581;SDS011;42463;52.214;21.238;2023-04-29T01:18:27;20.90;;;11.90;;
56581;SDS011;42463;52.214;21.238;2023-04-29T01:20:34;18.90;;;12.40;;
56581;SDS011;42463;52.214;21.238;2023-04-29T01:22:39;19.50;;;11.80;;
56581;SDS011;42463;52.214;21.238;2023-04-29T01:26:45;20.70;;;11.60;;
56581;SDS011;42463;52.214;21.238;2023-04-29T01:29:17;21.40;;;12.90;;
56581;SDS011;42463;52.214;21.238;2023-04-29T01:31:31;18.50;;;11.90;;
56581;SDS011;42463;52.214;21.238;2023-04-29T01:33:40;18.40;;;11.10;;
56581;SDS011;42463;52.214;21.238;2023-04-29T01:35:55;16.90;;;10.90;;
56581;SDS011;42463;52.214;21.238;2023-04-29T01:38:10;18.00;;;11.30;;
56581;SDS011;42463;52.214;21.238;2023-04-29T01:40:25;17.30;;;11.80;;
56581;SDS011;42463;52.214;21.238;2023-04-29T01:42:50;20.60;;;11.60;;
56581;SDS011;42463;52.214;21.238;2023-04-29T01:45:01;21.20;;;11.90;;
56581;SDS011;42463;52.214;21.238;2023-04-29T01:47:07;18.30;;;10.80;;
56581;SDS011;42463;52.214;21.238;2023-04-29T01:49:19;18.10;;;11.50;;
56581;SDS011;42463;52.214;21.238;2023-04-29T01:51:22;17.30;;;11.70;;
56581;SDS011;42463;52.214;21.238;2023-04-29T01:55:28;20.20;;;11.30;;
56581;SDS011;42463;52.214;21.238;2023-04-29T01:57:51;18.40;;;11.90;;
56581;SDS011;42463;52.214;21.238;2023-04-29T02:00:11;16.30;;;10.90;;
56581;SDS011;42463;52.214;21.238;2023-04-29T02:02:19;17.50;;;11.10;;
56581;SDS011;42463;52.214;21.238;2023-04-29T02:04:33;20.90;;;12.40;;
56581;SDS011;42463;52.214;21.238;2023-04-29T02:06:37;16.80;;;10.70;;
56581;SDS011;42463;52.214;21.238;2023-04-29T02:08:40;20.20;;;10.60;;
56581;SDS011;42463;52.214;21.238;2023-04-29T02:10:50;20.60;;;11.30;;
56581;SDS011;42463;52.214;21.238;2023-04-29T02:13:13;15.40;;;10.80;;
56581;SDS011;42463;52.214;21.238;2023-04-29T02:15:17;16.80;;;10.50;;
56581;SDS011;42463;52.214;21.238;2023-04-29T02:17:20;19.60;;;11.90;;
56581;SDS011;42463;52.214;21.238;2023-04-29T02:19:22;17.20;;;11.40;;
56581;SDS011;42463;52.214;21.238;2023-04-29T02:21:27;17.20;;;10.60;;
56581;SDS011;42463;52.214;21.238;2023-04-29T02:23:30;18.70;;;11.60;;
56581;SDS011;42463;52.214;21.238;2023-04-29T02:25:33;17.30;;;11.40;;
56581;SDS011;42463;52.214;21.238;2023-04-29T02:27:36;16.60;;;10.60;;
56581;SDS011;42463;52.214;21.238;2023-04-29T02:31:42;15.80;;;10.80;;
56581;SDS011;42463;52.214;21.238;2023-04-29T02:33:45;19.20;;;11.40;;
56581;SDS011;42463;52.214;21.238;2023-04-29T02:35:47;16.90;;;11.00;;
56581;SDS011;42463;52.214;21.238;2023-04-29T02:37:51;15.10;;;11.00;;
56581;SDS011;42463;52.214;21.238;2023-04-29T02:39:54;18.70;;;10.20;;
56581;SDS011;42463;52.214;21.238;2023-04-29T02:41:56;19.50;;;11.20;;
56581;SDS011;42463;52.214;21.238;2023-04-29T02:43:59;15.10;;;10.30;;
56581;SDS011;42463;52.214;21.238;2023-04-29T02:46:02;16.20;;;11.10;;
56581;SDS011;42463;52.214;21.238;2023-04-29T02:48:06;14.90;;;10.00;;
56581;SDS011;42463;52.214;21.238;2023-04-29T02:50:09;17.10;;;11.40;;
56581;SDS011;42463;52.214;21.238;2023-04-29T02:52:12;15.70;;;10.00;;
56581;SDS011;42463;52.214;21.238;2023-04-29T02:54:15;14.90;;;9.90;;
56581;SDS011;42463;52.214;21.238;2023-04-29T02:58:20;16.70;;;10.70;;
56581;SDS011;42463;52.214;21.238;2023-04-29T03:00:23;15.90;;;11.40;;
56581;SDS011;42463;52.214;21.238;2023-04-29T03:02:26;20.70;;;11.90;;
56581;SDS011;42463;52.214;21.238;2023-04-29T03:04:31;16.40;;;11.20;;
56581;SDS011;42463;52.214;21.238;2023-04-29T03:06:34;18.70;;;11.40;;
56581;SDS011;42463;52.214;21.238;2023-04-29T03:08:37;17.00;;;11.60;;
56581;SDS011;42463;52.214;21.238;2023-04-29T03:10:40;15.60;;;10.60;;
56581;SDS011;42463;52.214;21.238;2023-04-29T03:12:43;16.50;;;11.20;;
56581;SDS011;42463;52.214;21.238;2023-04-29T03:14:46;16.70;;;11.00;;
56581;SDS011;42463;52.214;21.238;2023-04-29T03:16:49;14.40;;;10.40;;
56581;SDS011;42463;52.214;21.238;2023-04-29T03:18:53;15.00;;;10.60;;
56581;SDS011;42463;52.214;21.238;2023-04-29T03:20:58;16.00;;;10.30;;
56581;SDS011;42463;52.214;21.238;2023-04-29T03:23:01;16.00;;;10.30;;
56581;SDS011;42463;52.214;21.238;2023-04-29T03:25:05;15.90;;;10.50;;
56581;SDS011;42463;52.214;21.238;2023-04-29T03:27:11;15.90;;;10.20;;
56581;SDS011;42463;52.214;21.238;2023-04-29T03:29:14;17.20;;;10.80;;
56581;SDS011;42463;52.214;21.238;2023-04-29T03:31:17;16.10;;;10.60;;
56581;SDS011;42463;52.214;21.238;2023-04-29T03:33:22;16.50;;;10.30;;
56581;SDS011;42463;52.214;21.238;2023-04-29T03:35:25;15.20;;;10.60;;
56581;SDS011;42463;52.214;21.238;2023-04-29T03:37:46;12.10;;;9.80;;
56581;SDS011;42463;52.214;21.238;2023-04-29T03:39:54;13.50;;;10.10;;
56581;SDS011;42463;52.214;21.238;2023-04-29T03:41:57;15.10;;;10.20;;
56581;SDS011;42463;52.214;21.238;2023-04-29T03:46:03;13.90;;;9.40;;
56581;SDS011;42463;52.214;21.238;2023-04-29T03:48:06;18.70;;;10.30;;
56581;SDS011;42463;52.214;21.238;2023-04-29T03:50:10;13.70;;;9.10;;
56581;SDS011;42463;52.214;21.238;2023-04-29T03:52:13;13.30;;;7.70;;
56581;SDS011;42463;52.214;21.238;2023-04-29T03:54:16;14.80;;;9.30;;
56581;SDS011;42463;52.214;21.238;2023-04-29T03:56:19;15.40;;;9.20;;
56581;SDS011;42463;52.214;21.238;2023-04-29T03:58:23;11.50;;;9.00;;
56581;SDS011;42463;52.214;21.238;2023-04-29T04:00:26;12.20;;;8.00;;
56581;SDS011;42463;52.214;21.238;2023-04-29T04:02:31;12.50;;;8.40;;
56581;SDS011;42463;52.214;21.238;2023-04-29T04:04:35;13.80;;;8.70;;
56581;SDS011;42463;52.214;21.238;2023-04-29T04:06:38;14.20;;;9.20;;
56581;SDS011;42463;52.214;21.238;2023-04-29T04:08:41;16.00;;;9.30;;
56581;SDS011;42463;52.214;21.238;2023-04-29T04:10:54;13.00;;;7.90;;
56581;SDS011;42463;52.214;21.238;2023-04-29T04:13:09;14.60;;;8.40;;
56581;SDS011;42463;52.214;21.238;2023-04-29T04:15:13;13.80;;;8.60;;
56581;SDS011;42463;52.214;21.238;2023-04-29T04:17:17;14.40;;;9.10;;
56581;SDS011;42463;52.214;21.238;2023-04-29T04:19:20;11.70;;;8.60;;
56581;SDS011;42463;52.214;21.238;2023-04-29T04:21:24;13.70;;;8.40;;
56581;SDS011;42463;52.214;21.238;2023-04-29T04:23:35;11.90;;;8.20;;
56581;SDS011;42463;52.214;21.238;2023-04-29T04:25:44;14.30;;;8.70;;
56581;SDS011;42463;52.214;21.238;2023-04-29T04:28:05;13.10;;;8.30;;
56581;SDS011;42463;52.214;21.238;2023-04-29T04:30:25;11.60;;;8.10;;
56581;SDS011;42463;52.214;21.238;2023-04-29T04:32:28;11.90;;;9.00;;
56581;SDS011;42463;52.214;21.238;2023-04-29T04:34:31;12.60;;;9.00;;
56581;SDS011;42463;52.214;21.238;2023-04-29T04:36:35;14.00;;;8.50;;
56581;SDS011;42463;52.214;21.238;2023-04-29T04:38:38;13.60;;;8.60;;
56581;SDS011;42463;52.214;21.238;2023-04-29T04:40:44;12.30;;;8.30;;
56581;SDS011;42463;52.214;21.238;2023-04-29T04:43:05;12.60;;;9.00;;
56581;SDS011;42463;52.214;21.238;2023-04-29T04:45:09;13.70;;;8.30;;
56581;SDS011;42463;52.214;21.238;2023-04-29T04:47:24;11.50;;;7.70;;
56581;SDS011;42463;52.214;21.238;2023-04-29T04:49:35;12.10;;;8.90;;
56581;SDS011;42463;52.214;21.238;2023-04-29T04:51:37;10.40;;;7.80;;
56581;SDS011;42463;52.214;21.238;2023-04-29T04:53:40;12.80;;;8.00;;
56581;SDS011;42463;52.214;21.238;2023-04-29T04:55:52;12.50;;;8.40;;
56581;SDS011;42463;52.214;21.238;2023-04-29T04:57:55;11.40;;;8.10;;
56581;SDS011;42463;52.214;21.238;2023-04-29T04:59:59;10.70;;;7.90;;
56581;SDS011;42463;52.214;21.238;2023-04-29T05:02:03;12.90;;;8.30;;
56581;SDS011;42463;52.214;21.238;2023-04-29T05:04:05;12.50;;;7.50;;
56581;SDS011;42463;52.214;21.238;2023-04-29T05:06:08;13.30;;;8.30;;
56581;SDS011;42463;52.214;21.238;2023-04-29T05:08:12;11.60;;;7.50;;
56581;SDS011;42463;52.214;21.238;2023-04-29T05:10:18;13.00;;;8.00;;
56581;SDS011;42463;52.214;21.238;2023-04-29T05:12:26;12.80;;;7.50;;
56581;SDS011;42463;52.214;21.238;2023-04-29T05:14:31;13.30;;;8.50;;
56581;SDS011;42463;52.214;21.238;2023-04-29T05:16:34;9.80;;;8.10;;
56581;SDS011;42463;52.214;21.238;2023-04-29T05:18:37;12.50;;;7.20;;
56581;SDS011;42463;52.214;21.238;2023-04-29T05:22:42;12.90;;;7.50;;
56581;SDS011;42463;52.214;21.238;2023-04-29T05:24:45;10.90;;;7.90;;
56581;SDS011;42463;52.214;21.238;2023-04-29T05:26:50;10.30;;;7.40;;
56581;SDS011;42463;52.214;21.238;2023-04-29T05:28:54;11.00;;;7.10;;
56581;SDS011;42463;52.214;21.238;2023-04-29T05:30:58;9.90;;;7.40;;
56581;SDS011;42463;52.214;21.238;2023-04-29T05:33:01;11.50;;;7.50;;
56581;SDS011;42463;52.214;21.238;2023-04-29T05:35:05;10.10;;;7.60;;
56581;SDS011;42463;52.214;21.238;2023-04-29T05:37:09;11.90;;;7.20;;
56581;SDS011;42463;52.214;21.238;2023-04-29T05:39:20;12.50;;;7.10;;
56581;SDS011;42463;52.214;21.238;2023-04-29T05:41:35;12.40;;;7.10;;
56581;SDS011;42463;52.214;21.238;2023-04-29T05:44:04;9.90;;;6.80;;
56581;SDS011;42463;52.214;21.238;2023-04-29T05:46:07;8.40;;;6.20;;
56581;SDS011;42463;52.214;21.238;2023-04-29T05:50:12;9.40;;;6.00;;
56581;SDS011;42463;52.214;21.238;2023-04-29T05:52:15;9.80;;;6.30;;
56581;SDS011;42463;52.214;21.238;2023-04-29T05:54:20;9.80;;;6.30;;
56581;SDS011;42463;52.214;21.238;2023-04-29T05:56:23;12.00;;;5.90;;
56581;SDS011;42463;52.214;21.238;2023-04-29T05:58:26;9.20;;;5.70;;
56581;SDS011;42463;52.214;21.238;2023-04-29T06:00:29;8.80;;;5.80;;
56581;SDS011;42463;52.214;21.238;2023-04-29T06:02:34;9.80;;;6.00;;
56581;SDS011;42463;52.214;21.238;2023-04-29T06:04:40;11.70;;;5.60;;
56581;SDS011;42463;52.214;21.238;2023-04-29T06:06:59;6.70;;;5.50;;
56581;SDS011;42463;52.214;21.238;2023-04-29T06:09:29;10.90;;;5.60;;
56581;SDS011;42463;52.214;21.238;2023-04-29T06:11:36;8.90;;;5.50;;
56581;SDS011;42463;52.214;21.238;2023-04-29T06:13:39;11.00;;;5.60;;
56581;SDS011;42463;52.214;21.238;2023-04-29T06:15:43;8.50;;;6.10;;
56581;SDS011;42463;52.214;21.238;2023-04-29T06:17:47;10.40;;;5.80;;
56581;SDS011;42463;52.214;21.238;2023-04-29T06:19:50;10.30;;;5.40;;
56581;SDS011;42463;52.214;21.238;2023-04-29T06:21:53;10.10;;;5.20;;
56581;SDS011;42463;52.214;21.238;2023-04-29T06:23:56;7.20;;;5.00;;
56581;SDS011;42463;52.214;21.238;2023-04-29T06:25:59;6.80;;;5.50;;
56581;SDS011;42463;52.214;21.238;2023-04-29T06:28:02;10.30;;;5.40;;
56581;SDS011;42463;52.214;21.238;2023-04-29T06:30:08;7.80;;;5.60;;
56581;SDS011;42463;52.214;21.238;2023-04-29T06:32:13;7.40;;;5.20;;
56581;SDS011;42463;52.214;21.238;2023-04-29T06:36:41;8.40;;;5.50;;
56581;SDS011;42463;52.214;21.238;2023-04-29T06:38:59;14.20;;;5.50;;
56581;SDS011;42463;52.214;21.238;2023-04-29T06:41:24;8.90;;;5.30;;
56581;SDS011;42463;52.214;21.238;2023-04-29T06:43:42;7.10;;;4.50;;
56581;SDS011;42463;52.214;21.238;2023-04-29T06:46:00;7.30;;;4.70;;
56581;SDS011;42463;52.214;21.238;2023-04-29T06:48:09;7.60;;;4.50;;
56581;SDS011;42463;52.214;21.238;2023-04-29T06:50:22;5.40;;;4.40;;
56581;SDS011;42463;52.214;21.238;2023-04-29T06:52:25;8.70;;;5.00;;
56581;SDS011;42463;52.214;21.238;2023-04-29T06:54:28;7.90;;;5.20;;
56581;SDS011;42463;52.214;21.238;2023-04-29T06:56:31;7.70;;;4.50;;
56581;SDS011;42463;52.214;21.238;2023-04-29T06:58:34;8.40;;;4.90;;
56581;SDS011;42463;52.214;21.238;2023-04-29T07:00:37;7.30;;;4.40;;
56581;SDS011;42463;52.214;21.238;2023-04-29T07:02:39;9.30;;;5.10;;
56581;SDS011;42463;52.214;21.238;2023-04-29T07:04:43;9.60;;;5.10;;
56581;SDS011;42463;52.214;21.238;2023-04-29T07:06:46;8.40;;;4.90;;
56581;SDS011;42463;52.214;21.238;2023-04-29T07:08:49;6.30;;;4.70;;
56581;SDS011;42463;52.214;21.238;2023-04-29T07:10:55;8.80;;;5.40;;
56581;SDS011;42463;52.214;21.238;2023-04-29T07:12:59;6.00;;;4.30;;
56581;SDS011;42463;52.214;21.238;2023-04-29T07:15:01;6.80;;;4.60;;
56581;SDS011;42463;52.214;21.238;2023-04-29T07:17:05;8.30;;;4.40;;
56581;SDS011;42463;52.214;21.238;2023-04-29T07:19:07;10.90;;;5.30;;
56581;SDS011;42463;52.214;21.238;2023-04-29T07:23:14;14.20;;;5.00;;
56581;SDS011;42463;52.214;21.238;2023-04-29T07:25:17;6.50;;;4.80;;
56581;SDS011;42463;52.214;21.238;2023-04-29T07:29:22;7.90;;;4.60;;
56581;SDS011;42463;52.214;21.238;2023-04-29T07:31:25;7.30;;;4.90;;
56581;SDS011;42463;52.214;21.238;2023-04-29T07:33:29;9.60;;;4.60;;
56581;SDS011;42463;52.214;21.238;2023-04-29T07:35:32;7.10;;;4.90;;
56581;SDS011;42463;52.214;21.238;2023-04-29T07:37:35;8.30;;;5.10;;
56581;SDS011;42463;52.214;21.238;2023-04-29T07:39:38;6.40;;;4.40;;
56581;SDS011;42463;52.214;21.238;2023-04-29T07:41:43;7.50;;;4.70;;
56581;SDS011;42463;52.214;21.238;2023-04-29T07:43:46;7.50;;;4.30;;
56581;SDS011;42463;52.214;21.238;2023-04-29T07:45:49;7.50;;;4.30;;
56581;SDS011;42463;52.214;21.238;2023-04-29T07:47:52;6.90;;;4.70;;
56581;SDS011;42463;52.214;21.238;2023-04-29T07:49:55;8.80;;;4.90;;
56581;SDS011;42463;52.214;21.238;2023-04-29T07:51:58;7.90;;;4.50;;
56581;SDS011;42463;52.214;21.238;2023-04-29T07:54:01;5.80;;;4.80;;
56581;SDS011;42463;52.214;21.238;2023-04-29T07:56:05;8.60;;;5.10;;
56581;SDS011;42463;52.214;21.238;2023-04-29T07:58:10;9.50;;;4.80;;
56581;SDS011;42463;52.214;21.238;2023-04-29T08:00:13;6.30;;;4.90;;
56581;SDS011;42463;52.214;21.238;2023-04-29T08:02:17;5.80;;;4.70;;
56581;SDS011;42463;52.214;21.238;2023-04-29T08:04:22;8.20;;;4.80;;
56581;SDS011;42463;52.214;21.238;2023-04-29T08:06:44;6.60;;;4.80;;
56581;SDS011;42463;52.214;21.238;2023-04-29T08:10:49;6.40;;;4.40;;
56581;SDS011;42463;52.214;21.238;2023-04-29T08:12:52;7.30;;;4.40;;
56581;SDS011;42463;52.214;21.238;2023-04-29T08:14:55;10.30;;;5.00;;
56581;SDS011;42463;52.214;21.238;2023-04-29T08:16:58;6.10;;;4.70;;
56581;SDS011;42463;52.214;21.238;2023-04-29T08:19:00;8.00;;;4.80;;
56581;SDS011;42463;52.214;21.238;2023-04-29T08:21:03;8.80;;;5.20;;
56581;SDS011;42463;52.214;21.238;2023-04-29T08:23:07;6.50;;;4.70;;
56581;SDS011;42463;52.214;21.238;2023-04-29T08:25:10;9.30;;;5.00;;
56581;SDS011;42463;52.214;21.238;2023-04-29T08:27:12;8.30;;;5.10;;
56581;SDS011;42463;52.214;21.238;2023-04-29T08:29:15;7.90;;;4.60;;
56581;SDS011;42463;52.214;21.238;2023-04-29T08:31:19;7.50;;;4.90;;
56581;SDS011;42463;52.214;21.238;2023-04-29T08:33:23;6.90;;;4.30;;
56581;SDS011;42463;52.214;21.238;2023-04-29T08:35:26;5.40;;;4.00;;
56581;SDS011;42463;52.214;21.238;2023-04-29T08:37:28;7.20;;;5.10;;
56581;SDS011;42463;52.214;21.238;2023-04-29T08:39:31;6.40;;;4.40;;
56581;SDS011;42463;52.214;21.238;2023-04-29T08:41:34;5.10;;;4.10;;
56581;SDS011;42463;52.214;21.238;2023-04-29T08:43:38;7.00;;;4.50;;
56581;SDS011;42463;52.214;21.238;2023-04-29T08:45:41;5.80;;;3.80;;
56581;SDS011;42463;52.214;21.238;2023-04-29T08:49:47;8.80;;;4.30;;
56581;SDS011;42463;52.214;21.238;2023-04-29T08:51:50;6.10;;;3.90;;
56581;SDS011;42463;52.214;21.238;2023-04-29T08:53:53;5.60;;;4.20;;
56581;SDS011;42463;52.214;21.238;2023-04-29T08:55:58;8.00;;;4.20;;
56581;SDS011;42463;52.214;21.238;2023-04-29T08:58:06;7.40;;;4.20;;
56581;SDS011;42463;52.214;21.238;2023-04-29T09:00:10;6.50;;;4.00;;
56581;SDS011;42463;52.214;21.238;2023-04-29T09:02:14;7.30;;;4.30;;
56581;SDS011;42463;52.214;21.238;2023-04-29T09:04:20;7.70;;;4.60;;
56581;SDS011;42463;52.214;21.238;2023-04-29T09:06:30;9.40;;;5.20;;
56581;SDS011;42463;52.214;21.238;2023-04-29T09:08:34;6.00;;;4.30;;
56581;SDS011;42463;52.214;21.238;2023-04-29T09:10:38;8.90;;;5.00;;
56581;SDS011;42463;52.214;21.238;2023-04-29T09:12:43;9.00;;;4.40;;
56581;SDS011;42463;52.214;21.238;2023-04-29T09:14:47;7.90;;;4.70;;
56581;SDS011;42463;52.214;21.238;2023-04-29T09:16:50;6.50;;;4.30;;
56581;SDS011;42463;52.214;21.238;2023-04-29T09:18:52;10.60;;;5.10;;
56581;SDS011;42463;52.214;21.238;2023-04-29T09:20:55;7.80;;;5.00;;
56581;SDS011;42463;52.214;21.238;2023-04-29T09:22:59;6.90;;;4.70;;
56581;SDS011;42463;52.214;21.238;2023-04-29T09:25:12;8.00;;;5.50;;
56581;SDS011;42463;52.214;21.238;2023-04-29T09:27:25;5.80;;;4.50;;
56581;SDS011;42463;52.214;21.238;2023-04-29T09:29:29;8.50;;;4.70;;
56581;SDS011;42463;52.214;21.238;2023-04-29T09:31:33;8.30;;;4.90;;
56581;SDS011;42463;52.214;21.238;2023-04-29T09:33:50;11.80;;;5.40;;
56581;SDS011;42463;52.214;21.238;2023-04-29T09:35:54;7.40;;;4.70;;
56581;SDS011;42463;52.214;21.238;2023-04-29T09:38:07;10.00;;;5.10;;
56581;SDS011;42463;52.214;21.238;2023-04-29T09:40:15;8.00;;;4.70;;
56581;SDS011;42463;52.214;21.238;2023-04-29T09:42:32;10.00;;;4.80;;
56581;SDS011;42463;52.214;21.238;2023-04-29T09:44:44;9.80;;;5.80;;
56581;SDS011;42463;52.214;21.238;2023-04-29T09:46:51;9.80;;;5.10;;
56581;SDS011;42463;52.214;21.238;2023-04-29T09:48:57;8.40;;;5.00;;
56581;SDS011;42463;52.214;21.238;2023-04-29T09:51:00;8.50;;;4.80;;
56581;SDS011;42463;52.214;21.238;2023-04-29T09:53:03;6.90;;;4.40;;
56581;SDS011;42463;52.214;21.238;2023-04-29T09:55:10;9.10;;;4.50;;
56581;SDS011;42463;52.214;21.238;2023-04-29T09:57:15;7.00;;;4.70;;
56581;SDS011;42463;52.214;21.238;2023-04-29T09:59:20;6.80;;;4.70;;
56581;SDS011;42463;52.214;21.238;2023-04-29T10:01:24;9.20;;;4.60;;
56581;SDS011;42463;52.214;21.238;2023-04-29T10:03:30;6.50;;;4.00;;
56581;SDS011;42463;52.214;21.238;2023-04-29T10:05:34;7.60;;;4.30;;
56581;SDS011;42463;52.214;21.238;2023-04-29T10:07:38;4.60;;;4.10;;
56581;SDS011;42463;52.214;21.238;2023-04-29T10:09:41;8.80;;;4.40;;
56581;SDS011;42463;52.214;21.238;2023-04-29T10:11:47;9.70;;;4.40;;
56581;SDS011;42463;52.214;21.238;2023-04-29T10:13:51;9.00;;;4.40;;
56581;SDS011;42463;52.214;21.238;2023-04-29T10:15:56;8.20;;;5.00;;
56581;SDS011;42463;52.214;21.238;2023-04-29T10:18:08;5.70;;;4.20;;
56581;SDS011;42463;52.214;21.238;2023-04-29T10:20:21;7.70;;;4.40;;
56581;SDS011;42463;52.214;21.238;2023-04-29T10:22:28;6.20;;;4.50;;
56581;SDS011;42463;52.214;21.238;2023-04-29T10:24:37;8.50;;;4.80;;
56581;SDS011;42463;52.214;21.238;2023-04-29T10:26:41;8.50;;;4.90;;
56581;SDS011;42463;52.214;21.238;2023-04-29T10:28:46;8.20;;;5.40;;
56581;SDS011;42463;52.214;21.238;2023-04-29T10:30:52;5.80;;;4.60;;
56581;SDS011;42463;52.214;21.238;2023-04-29T10:32:56;7.00;;;5.60;;
56581;SDS011;42463;52.214;21.238;2023-04-29T10:35:03;9.80;;;4.90;;
56581;SDS011;42463;52.214;21.238;2023-04-29T10:37:07;8.80;;;5.20;;
56581;SDS011;42463;52.214;21.238;2023-04-29T10:39:15;11.70;;;4.90;;
56581;SDS011;42463;52.214;21.238;2023-04-29T10:41:29;5.80;;;5.00;;
56581;SDS011;42463;52.214;21.238;2023-04-29T10:43:36;6.70;;;4.70;;
56581;SDS011;42463;52.214;21.238;2023-04-29T10:45:38;6.50;;;5.20;;
56581;SDS011;42463;52.214;21.238;2023-04-29T10:47:41;6.20;;;4.90;;
56581;SDS011;42463;52.214;21.238;2023-04-29T10:50:14;6.80;;;4.70;;
56581;SDS011;42463;52.214;21.238;2023-04-29T10:52:17;5.10;;;4.50;;
56581;SDS011;42463;52.214;21.238;2023-04-29T10:54:20;9.50;;;5.20;;
56581;SDS011;42463;52.214;21.238;2023-04-29T10:58:53;7.90;;;5.30;;
56581;SDS011;42463;52.214;21.238;2023-04-29T11:00:56;5.70;;;4.70;;
56581;SDS011;42463;52.214;21.238;2023-04-29T11:03:00;7.00;;;4.90;;
56581;SDS011;42463;52.214;21.238;2023-04-29T11:05:06;6.40;;;5.00;;
56581;SDS011;42463;52.214;21.238;2023-04-29T11:07:11;10.00;;;4.70;;
56581;SDS011;42463;52.214;21.238;2023-04-29T11:09:29;8.50;;;4.90;;
56581;SDS011;42463;52.214;21.238;2023-04-29T11:11:44;6.40;;;4.70;;
56581;SDS011;42463;52.214;21.238;2023-04-29T11:13:49;7.30;;;5.00;;
56581;SDS011;42463;52.214;21.238;2023-04-29T11:15:53;6.00;;;4.60;;
56581;SDS011;42463;52.214;21.238;2023-04-29T11:18:05;7.10;;;4.50;;
56581;SDS011;42463;52.214;21.238;2023-04-29T11:20:12;11.10;;;5.30;;
56581;SDS011;42463;52.214;21.238;2023-04-29T11:22:25;8.50;;;5.10;;
56581;SDS011;42463;52.214;21.238;2023-04-29T11:24:28;7.40;;;4.80;;
56581;SDS011;42463;52.214;21.238;2023-04-29T11:26:31;8.40;;;5.00;;
56581;SDS011;42463;52.214;21.238;2023-04-29T11:28:35;8.20;;;4.70;;
56581;SDS011;42463;52.214;21.238;2023-04-29T11:30:39;7.00;;;5.10;;
56581;SDS011;42463;52.214;21.238;2023-04-29T11:32:43;5.70;;;4.60;;
56581;SDS011;42463;52.214;21.238;2023-04-29T11:34:46;6.40;;;4.70;;
56581;SDS011;42463;52.214;21.238;2023-04-29T11:38:51;6.00;;;4.40;;
56581;SDS011;42463;52.214;21.238;2023-04-29T11:40:54;9.40;;;4.90;;
56581;SDS011;42463;52.214;21.238;2023-04-29T11:42:58;7.60;;;4.70;;
56581;SDS011;42463;52.214;21.238;2023-04-29T11:45:00;7.40;;;5.50;;
56581;SDS011;42463;52.214;21.238;2023-04-29T11:47:04;6.20;;;4.60;;
56581;SDS011;42463;52.214;21.238;2023-04-29T11:51:09;9.90;;;4.70;;
56581;SDS011;42463;52.214;21.238;2023-04-29T11:53:12;6.80;;;4.70;;
56581;SDS011;42463;52.214;21.238;2023-04-29T11:55:15;7.80;;;5.70;;
56581;SDS011;42463;52.214;21.238;2023-04-29T11:57:19;6.40;;;4.40;;
56581;SDS011;42463;52.214;21.238;2023-04-29T11:59:22;8.50;;;4.90;;
56581;SDS011;42463;52.214;21.238;2023-04-29T12:01:25;7.20;;;5.20;;
56581;SDS011;42463;52.214;21.238;2023-04-29T12:03:28;8.80;;;5.20;;
56581;SDS011;42463;52.214;21.238;2023-04-29T12:05:32;7.60;;;5.20;;
56581;SDS011;42463;52.214;21.238;2023-04-29T12:07:35;6.30;;;5.20;;
56581;SDS011;42463;52.214;21.238;2023-04-29T12:09:42;5.30;;;4.80;;
56581;SDS011;42463;52.214;21.238;2023-04-29T12:11:45;6.80;;;4.70;;
56581;SDS011;42463;52.214;21.238;2023-04-29T12:13:50;7.90;;;5.40;;
56581;SDS011;42463;52.214;21.238;2023-04-29T12:15:53;7.70;;;4.60;;
56581;SDS011;42463;52.214;21.238;2023-04-29T12:17:58;7.00;;;4.40;;
56581;SDS011;42463;52.214;21.238;2023-04-29T12:20:02;7.40;;;4.70;;
56581;SDS011;42463;52.214;21.238;2023-04-29T12:22:06;8.20;;;4.90;;
56581;SDS011;42463;52.214;21.238;2023-04-29T12:24:09;9.80;;;4.80;;
56581;SDS011;42463;52.214;21.238;2023-04-29T12:26:14;6.80;;;4.50;;
56581;SDS011;42463;52.214;21.238;2023-04-29T12:28:18;6.30;;;4.30;;
56581;SDS011;42463;52.214;21.238;2023-04-29T12:30:22;7.30;;;4.70;;
56581;SDS011;42463;52.214;21.238;2023-04-29T12:32:25;8.80;;;4.70;;
56581;SDS011;42463;52.214;21.238;2023-04-29T12:34:28;6.10;;;4.40;;
56581;SDS011;42463;52.214;21.238;2023-04-29T12:36:32;7.30;;;4.70;;
56581;SDS011;42463;52.214;21.238;2023-04-29T12:38:37;7.10;;;4.60;;
56581;SDS011;42463;52.214;21.238;2023-04-29T12:40:40;8.30;;;4.80;;
56581;SDS011;42463;52.214;21.238;2023-04-29T12:42:44;5.70;;;4.60;;
56581;SDS011;42463;52.214;21.238;2023-04-29T12:44:47;5.90;;;4.10;;
56581;SDS011;42463;52.214;21.238;2023-04-29T12:46:50;6.70;;;4.40;;
56581;SDS011;42463;52.214;21.238;2023-04-29T12:48:53;6.30;;;4.70;;
56581;SDS011;42463;52.214;21.238;2023-04-29T12:50:56;6.70;;;4.90;;
56581;SDS011;42463;52.214;21.238;2023-04-29T12:53:00;7.40;;;5.20;;
56581;SDS011;42463;52.214;21.238;2023-04-29T12:55:05;7.90;;;4.40;;
56581;SDS011;42463;52.214;21.238;2023-04-29T12:57:09;9.00;;;5.30;;